Time;durP1;ratioP1;P1;durP2;ratioP2;P2;SDS_P1;SDS_P2;PMS_P1;PMS_P2;Temp;Humidity;BMP_temperature;BMP_pressure;BME280_temperature;BME280_humidity;BME280_pressure;Samples;Min_cycle;Max_cycle;Signal;HPM_P1;HPM_P2
2023/02/21 02:16:02;;;;;;;5.20;4.23;;;9.70;99.90;;;-141.84;71.60;19450.06;4989257;28;20738;-56
2023/02/21 02:19:08;;;;;;;4.80;4.00;;;9.70;99.90;;;-141.84;72.05;19401.28;4988995;28;20308;-54
2023/02/21 02:22:38;;;;;;;5.97;4.23;;;9.70;99.90;;;-141.84;72.86;19370.81;4989149;28;20229;-54
2023/02/21 02:25:31;;;;;;;6.10;4.10;;;9.60;99.90;;;-141.84;72.71;19372.84;4982754;28;20227;-54
2023/02/21 02:28:45;;;;;;;5.13;4.30;;;9.50;99.90;;;-141.84;72.21;19370.81;4989416;28;20238;-53
2023/02/21 02:31:42;;;;;;;5.57;4.43;;;9.60;99.90;;;-141.84;71.93;19395.19;4989034;28;20231;-52
2023/02/21 02:34:55;;;;;;;5.97;4.53;;;9.70;99.90;;;-141.84;72.45;19397.22;4989145;28;20254;-53
2023/02/21 02:37:31;;;;;;;7.57;4.83;;;9.60;99.90;;;-141.84;71.98;19419.59;4989118;28;20230;-56
2023/02/21 02:40:15;;;;;;;7.13;4.37;;;9.70;99.90;;;-141.84;72.04;19415.50;4988984;28;20309;-52
2023/02/21 02:43:01;;;;;;;5.77;4.60;;;9.70;99.90;;;-141.84;72.62;19411.44;4989203;28;20277;-52
2023/02/21 02:45:36;;;;;;;5.33;4.33;;;9.60;99.90;;;-141.84;72.13;19397.22;4989431;28;20239;-55
2023/02/21 02:48:16;;;;;;;8.83;4.87;;;9.70;99.90;;;-141.84;72.48;19423.66;4988578;28;20234;-54
2023/02/21 02:50:50;;;;;;;6.87;5.30;;;9.70;99.90;;;-141.84;71.86;19391.13;4989705;28;20180;-54
2023/02/21 02:53:25;;;;;;;5.73;4.33;;;9.70;99.90;;;-141.84;71.99;19405.34;4992948;28;20269;-55
2023/02/21 02:55:57;;;;;;;5.87;4.60;;;9.70;99.90;;;-141.84;72.67;19409.41;4992332;28;20235;-54
2023/02/21 02:58:30;;;;;;;6.83;5.13;;;9.70;99.90;;;-141.84;72.73;19391.13;4992647;28;20237;-53
2023/02/21 03:01:20;;;;;;;5.90;4.70;;;9.70;99.90;;;-141.84;72.64;19397.22;4992661;28;20233;-53
2023/02/21 03:04:18;;;;;;;7.90;5.50;;;9.70;99.90;;;-141.84;73.01;19397.22;4991955;28;20238;-52
2023/02/21 03:07:02;;;;;;;6.03;4.90;;;9.70;99.90;;;-141.84;72.92;19374.88;4992453;28;20289;-54
2023/02/21 03:09:44;;;;;;;7.30;5.50;;;9.70;99.90;;;-141.84;72.60;19411.44;4992141;28;20273;-52
2023/02/21 03:12:25;;;;;;;9.60;6.17;;;9.70;99.90;;;-141.84;72.67;19397.22;4992648;28;20566;-50
2023/02/21 03:15:08;;;;;;;7.47;5.30;;;9.70;99.90;;;-141.84;73.23;19397.22;4992617;28;20187;-49
2023/02/21 03:17:44;;;;;;;7.73;5.53;;;9.70;99.90;;;-141.84;73.59;19358.63;4992646;28;20200;-54
2023/02/21 03:20:16;;;;;;;6.80;5.67;;;9.60;99.90;;;-141.84;73.38;19407.38;4992241;28;20226;-52
2023/02/21 03:22:48;;;;;;;7.37;5.63;;;9.60;99.90;;;-141.84;73.29;19368.78;4992281;28;20311;-53
2023/02/21 03:25:19;;;;;;;7.80;6.00;;;9.70;99.90;;;-141.84;73.22;19403.31;4992226;28;20227;-52
2023/02/21 03:27:50;;;;;;;9.13;6.57;;;9.70;99.90;;;-141.84;73.54;19431.78;4992074;28;20254;-53
2023/02/21 03:30:20;;;;;;;7.77;6.03;;;9.70;99.90;;;-141.84;73.35;19356.59;4992115;28;20235;-50
2023/02/21 03:32:52;;;;;;;8.20;6.27;;;9.70;99.90;;;-141.84;73.59;19356.59;4991710;28;20203;-59
2023/02/21 03:35:21;;;;;;;8.40;6.27;;;9.70;99.90;;;-141.84;73.41;19413.47;4992322;28;20188;-51
2023/02/21 03:37:53;;;;;;;9.23;6.73;;;9.70;99.90;;;-141.84;73.83;19362.69;4991769;28;20231;-54
2023/02/21 03:40:24;;;;;;;8.00;5.90;;;9.70;99.90;;;-141.84;72.90;19354.56;4991973;28;20231;-55
2023/02/21 03:42:54;;;;;;;8.50;7.03;;;9.70;99.90;;;-141.84;73.49;19376.91;4991548;28;20612;-51
2023/02/21 03:45:22;;;;;;;9.30;6.93;;;9.70;99.90;;;-141.84;73.65;19376.91;4991912;28;20235;-53
2023/02/21 03:47:51;;;;;;;8.80;6.70;;;9.70;99.90;;;-141.84;73.47;19389.09;4991431;28;20243;-54
2023/02/21 03:50:19;;;;;;;8.27;5.87;;;9.70;99.90;;;-141.84;74.01;19391.13;4991832;28;20695;-53
2023/02/21 03:52:47;;;;;;;9.97;6.50;;;9.70;99.90;;;-141.84;73.78;19399.25;4991565;28;20227;-48
2023/02/21 03:55:18;;;;;;;9.43;6.63;;;9.70;99.90;;;-141.84;73.87;19403.31;4991546;28;20227;-54
2023/02/21 03:57:46;;;;;;;8.70;6.57;;;9.70;99.90;;;-141.84;74.04;19403.31;4992076;28;20227;-54
2023/02/21 04:00:15;;;;;;;9.17;6.97;;;9.70;99.90;;;-141.84;73.89;19433.81;4991486;28;20235;-52
2023/02/21 04:02:44;;;;;;;9.63;6.63;;;9.70;99.90;;;-141.84;74.51;19354.56;4991799;28;20203;-52
2023/02/21 04:05:12;;;;;;;8.87;6.23;;;9.70;99.90;;;-141.84;74.40;19403.31;4991075;28;20239;-54
2023/02/21 04:07:40;;;;;;;9.17;6.90;;;9.60;99.90;;;-141.84;73.90;19378.94;4991177;28;20716;-52
2023/02/21 04:10:09;;;;;;;8.43;6.70;;;9.70;99.90;;;-141.84;73.97;19391.13;4991215;28;20227;-56
2023/02/21 04:12:38;;;;;;;9.53;6.70;;;9.70;99.90;;;-141.84;74.47;19372.84;4991172;28;20239;-52
2023/02/21 04:15:08;;;;;;;10.00;7.00;;;9.70;99.90;;;-141.84;74.32;19376.91;4991027;28;20215;-53
2023/02/21 04:17:36;;;;;;;10.50;7.67;;;9.60;99.90;;;-141.84;74.00;19370.81;4991435;28;20203;-52
2023/02/21 04:20:05;;;;;;;8.60;6.83;;;9.70;99.90;;;-141.84;74.65;19372.84;4990585;28;20627;-54
2023/02/21 04:22:33;;;;;;;8.67;6.80;;;9.60;99.90;;;-141.84;74.52;19383.00;4991084;28;20254;-52
2023/02/21 04:25:01;;;;;;;11.77;7.37;;;9.60;99.90;;;-141.84;74.74;19356.59;4990826;28;20231;-50
2023/02/21 04:27:29;;;;;;;10.07;7.53;;;9.60;99.90;;;-141.84;75.12;19338.28;4990873;28;20227;-53
2023/02/21 04:29:58;;;;;;;10.10;7.80;;;9.50;99.90;;;-141.84;75.38;19338.28;4990853;28;20207;-53
2023/02/21 04:32:27;;;;;;;10.47;7.60;;;9.50;99.90;;;-141.84;75.76;19301.72;4991231;28;20231;-53
2023/02/21 04:34:55;;;;;;;11.07;7.77;;;9.40;99.90;;;-141.84;75.16;19364.72;4990347;28;20799;-53
2023/02/21 04:37:23;;;;;;;9.30;7.30;;;9.40;99.90;;;-141.84;75.32;19336.25;4990618;28;20228;-53
2023/02/21 04:39:51;;;;;;;11.97;8.17;;;9.40;99.90;;;-141.84;75.45;19338.28;4990753;28;20254;-51
2023/02/21 04:42:19;;;;;;;10.87;7.73;;;9.40;99.90;;;-141.84;75.86;19309.84;4990707;28;20226;-54
2023/02/21 04:44:47;;;;;;;13.43;8.30;;;9.40;99.90;;;-141.84;74.57;19362.69;4991008;28;20211;-52
2023/02/21 04:47:28;;;;;;;11.40;8.27;;;9.50;99.90;;;-141.84;75.13;19358.63;5009535;28;20587;-52
2023/02/21 04:49:57;;;;;;;10.83;8.23;;;9.50;99.90;;;-141.84;75.24;19362.69;5009507;28;20772;-54
2023/02/21 04:52:25;;;;;;;13.97;8.50;;;9.50;99.90;;;-141.84;75.41;19350.50;5010043;28;20260;-55
2023/02/21 04:54:54;;;;;;;11.20;7.90;;;9.40;99.90;;;-141.84;75.21;19356.59;5010059;28;20233;-54
2023/02/21 04:57:22;;;;;;;9.87;8.03;;;9.50;99.90;;;-141.84;75.56;19372.84;5010034;28;20227;-54
2023/02/21 04:59:57;;;;;;;10.07;8.03;;;9.40;99.90;;;-141.84;75.47;19346.44;5009527;28;20678;-51
2023/02/21 05:02:25;;;;;;;11.00;8.33;;;9.50;99.90;;;-141.84;75.72;19305.78;5010207;28;20297;-56
2023/02/21 05:04:55;;;;;;;10.93;8.23;;;9.40;99.90;;;-141.84;75.38;19342.34;5009575;28;20231;-53
2023/02/21 05:07:23;;;;;;;10.87;8.20;;;9.40;99.90;;;-141.84;75.01;19342.34;5009686;28;20233;-55
2023/02/21 05:09:52;;;;;;;11.60;8.40;;;9.50;99.90;;;-141.84;74.93;19358.63;5009635;28;20226;-55
2023/02/21 05:12:20;;;;;;;13.83;8.60;;;9.50;99.90;;;-141.84;75.03;19366.75;5010128;28;20227;-53
2023/02/21 05:14:48;;;;;;;12.27;8.83;;;9.50;99.90;;;-141.84;75.43;19303.75;5009243;28;20205;-54
2023/02/21 05:17:17;;;;;;;14.47;9.53;;;9.40;99.90;;;-141.84;75.05;19334.22;5009848;28;20213;-51
2023/02/21 05:19:47;;;;;;;12.77;8.53;;;9.40;99.90;;;-141.84;75.49;19326.09;5009311;28;20234;-55
2023/02/21 05:22:19;;;;;;;11.83;8.77;;;9.40;99.90;;;-141.84;75.11;19346.44;5009503;28;20326;-52
2023/02/21 05:24:47;;;;;;;14.00;9.47;;;9.40;99.90;;;-141.84;75.76;19330.16;5009486;28;20472;-53
2023/02/21 05:27:19;;;;;;;13.40;9.53;;;9.30;99.90;;;-141.84;75.84;19322.03;5009620;28;20230;-49
2023/02/21 05:29:48;;;;;;;12.73;8.73;;;9.30;99.90;;;-141.84;75.17;19354.56;5009872;28;20241;-53
2023/02/21 05:32:18;;;;;;;11.73;8.87;;;9.40;99.90;;;-141.84;75.33;19352.53;4989919;28;20232;-52
2023/02/21 05:34:46;;;;;;;13.07;9.63;;;9.40;99.90;;;-141.84;75.88;19342.34;5005536;28;20316;-51
2023/02/21 05:37:19;;;;;;;12.50;9.07;;;9.30;99.90;;;-141.84;75.12;19356.59;4997458;28;20314;-52
2023/02/21 05:39:48;;;;;;;12.33;9.30;;;9.40;99.90;;;-141.84;75.14;19295.63;4989758;28;20235;-53
2023/02/21 05:42:17;;;;;;;15.67;9.07;;;9.40;99.90;;;-141.84;75.31;19360.66;4989638;28;20239;-55
2023/02/21 05:44:46;;;;;;;12.93;9.47;;;9.40;99.90;;;-141.84;74.94;19326.09;4990231;28;20210;-53
2023/02/21 05:47:15;;;;;;;13.97;9.67;;;9.40;99.90;;;-141.84;75.17;19320.00;4989221;28;20246;-52
2023/02/21 05:49:44;;;;;;;13.33;9.03;;;9.40;99.90;;;-141.84;75.26;19326.09;5005010;28;20226;-53
2023/02/21 05:52:15;;;;;;;14.80;10.10;;;9.40;99.90;;;-141.84;75.30;19340.31;4997666;28;20590;-53
2023/02/21 05:54:45;;;;;;;14.77;9.70;;;9.40;99.90;;;-141.84;75.35;19303.75;4989758;28;20246;-55
2023/02/21 05:57:13;;;;;;;14.13;9.67;;;9.40;99.90;;;-141.84;75.74;19303.75;4989482;28;20231;-54
2023/02/21 05:59:42;;;;;;;13.50;9.13;;;9.40;99.90;;;-141.84;76.09;19330.16;4990044;28;20379;-49
2023/02/21 06:02:10;;;;;;;11.97;9.70;;;9.40;99.90;;;-141.84;76.06;19311.88;4988696;28;20231;-53
2023/02/21 06:04:38;;;;;;;15.47;10.33;;;9.30;99.90;;;-141.84;75.79;19293.59;4989288;28;20258;-52
2023/02/21 06:07:07;;;;;;;13.43;9.70;;;9.30;99.90;;;-141.84;75.72;19350.50;4989512;28;20233;-51
2023/02/21 06:09:35;;;;;;;15.23;9.90;;;9.30;99.90;;;-141.84;76.01;19305.78;4989809;28;20227;-53
2023/02/21 06:12:05;;;;;;;15.20;9.27;;;9.30;99.90;;;-141.84;75.32;19313.91;4989131;28;20603;-52
2023/02/21 06:14:33;;;;;;;14.17;10.10;;;9.40;99.90;;;-141.84;75.70;19303.75;4989967;28;20235;-55
2023/02/21 06:17:02;;;;;;;12.70;9.40;;;9.40;99.90;;;-141.84;75.23;19342.34;4988622;28;20699;-54
2023/02/21 06:19:30;;;;;;;14.03;10.33;;;9.40;99.90;;;-141.84;75.14;19330.16;4989333;28;20250;-52
2023/02/21 06:22:00;;;;;;;12.93;9.60;;;9.40;99.90;;;-141.84;75.50;19320.00;4988762;28;20757;-54
2023/02/21 06:24:28;;;;;;;12.90;9.47;;;9.40;99.90;;;-141.84;75.13;19344.41;4989048;28;20235;-52
2023/02/21 06:26:56;;;;;;;14.50;9.57;;;9.40;99.90;;;-141.84;74.60;19338.28;4992687;28;20203;-53
2023/02/21 06:29:26;;;;;;;16.13;10.07;;;9.50;99.90;;;-141.84;74.89;19352.53;4993637;28;20206;-52
2023/02/21 06:31:58;;;;;;;14.43;10.33;;;9.50;99.90;;;-141.84;75.91;19289.53;4992924;28;20323;-50
2023/02/21 06:34:26;;;;;;;14.33;10.03;;;9.40;99.90;;;-141.84;75.75;19289.53;4992910;28;20250;-53
2023/02/21 06:36:56;;;;;;;13.33;10.10;;;9.40;99.90;;;-141.84;74.57;19352.53;4993010;28;20223;-52
2023/02/21 06:39:24;;;;;;;14.57;10.07;;;9.50;99.90;;;-141.84;74.43;19342.34;4993178;28;20223;-54
2023/02/21 06:41:53;;;;;;;14.30;9.77;;;9.50;99.90;;;-141.84;75.00;19322.03;4992414;28;20713;-49
2023/02/21 06:44:21;;;;;;;15.60;10.23;;;9.50;99.90;;;-141.84;75.24;19320.00;4993194;28;20720;-53
2023/02/21 06:46:53;;;;;;;15.53;10.93;;;9.50;99.90;;;-141.84;74.92;19324.06;4992567;28;20232;-52
2023/02/21 06:49:21;;;;;;;13.77;9.43;;;9.50;99.90;;;-141.84;75.15;19330.16;4992591;28;20607;-54
2023/02/21 06:51:49;;;;;;;13.23;9.80;;;9.50;99.90;;;-141.84;75.03;19348.47;4992241;28;20227;-53
2023/02/21 06:54:18;;;;;;;14.60;10.80;;;9.50;99.90;;;-141.84;75.00;19350.50;4992598;28;20254;-53
2023/02/21 06:56:46;;;;;;;14.30;10.13;;;9.50;99.90;;;-141.84;75.08;19350.50;4992813;28;20575;-52
2023/02/21 06:59:14;;;;;;;18.00;10.27;;;9.50;99.90;;;-141.84;75.21;19348.47;4992150;28;20298;-54
2023/02/21 07:01:43;;;;;;;14.93;10.27;;;9.50;99.90;;;-141.84;75.59;19307.81;5007563;28;20257;-52
2023/02/21 07:04:13;;;;;;;13.20;10.07;;;9.50;99.90;;;-141.84;75.05;19360.66;5007843;28;20234;-53
2023/02/21 07:06:41;;;;;;;15.33;10.37;;;9.60;99.90;;;-141.84;74.38;19348.47;5010404;28;20226;-54
2023/02/21 07:09:09;;;;;;;15.53;10.60;;;9.60;99.90;;;-141.84;74.78;19354.56;5011979;28;20226;-52
2023/02/21 07:11:37;;;;;;;15.90;10.13;;;9.60;99.90;;;-141.84;74.60;19346.44;5012402;28;20203;-55
2023/02/21 07:14:06;;;;;;;15.23;10.50;;;9.70;99.90;;;-141.84;74.33;19354.56;5011872;28;20231;-56
2023/02/21 07:16:34;;;;;;;13.20;9.70;;;9.70;99.90;;;-141.84;73.62;19427.72;5011596;28;20624;-54
2023/02/21 07:19:02;;;;;;;13.80;9.50;;;9.80;99.90;;;-141.84;73.53;19389.09;5000639;28;20219;-52
2023/02/21 07:21:32;;;;;;;14.63;10.13;;;9.80;99.90;;;-141.84;73.85;19407.38;4991810;28;20234;-52
2023/02/21 07:24:00;;;;;;;13.33;8.50;;;9.80;99.90;;;-141.84;73.45;19411.44;4992090;28;20207;-52
2023/02/21 07:26:28;;;;;;;13.13;9.40;;;9.90;99.90;;;-141.84;72.61;19378.94;4992669;28;20242;-53
2023/02/21 07:28:56;;;;;;;13.67;9.33;;;10.00;99.90;;;-141.84;72.23;19427.72;4991827;28;20237;-54
2023/02/21 07:31:24;;;;;;;13.23;9.20;;;10.10;99.90;;;-141.84;72.11;19425.69;4991994;28;20651;-50
2023/02/21 07:33:53;;;;;;;12.10;9.07;;;10.10;99.90;;;-141.84;72.08;19439.91;4991451;28;20227;-53
2023/02/21 07:36:21;;;;;;;12.23;9.40;;;10.20;99.90;;;-141.84;71.86;19437.88;4992200;28;20227;-53
2023/02/21 07:38:51;;;;;;;13.07;9.20;;;10.30;99.90;;;-141.84;71.92;19415.50;4991376;28;20211;-56
2023/02/21 07:41:19;;;;;;;14.53;9.07;;;10.30;99.90;;;-141.84;71.69;19421.63;4991425;28;20203;-53
2023/02/21 07:43:47;;;;;;;11.53;8.63;;;10.30;99.90;;;-141.84;71.69;19446.00;4991470;28;20227;-53
2023/02/21 07:46:17;;;;;;;12.27;8.80;;;10.30;99.90;;;-141.84;71.58;19439.91;4991009;28;20227;-51
2023/02/21 07:48:45;;;;;;;12.27;9.27;;;10.40;99.90;;;-141.84;71.43;19419.59;4990168;28;20727;-52
2023/02/21 07:51:13;;;;;;;12.30;9.40;;;10.40;99.90;;;-141.84;71.82;19435.84;4990912;28;20293;-52
2023/02/21 07:53:42;;;;;;;11.67;8.43;;;10.30;99.90;;;-141.84;71.92;19435.84;4992112;28;20196;-56
2023/02/21 07:56:12;;;;;;;11.73;8.77;;;10.40;99.90;;;-141.84;72.24;19443.97;4991437;28;20231;-53
2023/02/21 07:58:40;;;;;;;14.37;8.60;;;10.40;99.90;;;-141.84;71.79;19460.22;4991010;28;20231;-52
2023/02/21 08:01:09;;;;;;;11.43;8.37;;;10.40;99.90;;;-141.84;70.62;19454.13;4991498;28;20235;-51
2023/02/21 08:03:37;;;;;;;10.53;7.60;;;10.50;99.90;;;-141.84;70.22;19494.78;4990949;28;20240;-51
2023/02/21 08:06:06;;;;;;;10.70;8.33;;;10.60;99.90;;;-141.84;70.14;19454.13;4991378;28;20210;-52
2023/02/21 08:08:34;;;;;;;13.03;8.87;;;10.70;99.90;;;-141.84;70.61;19466.31;4991830;28;20203;-52
2023/02/21 08:11:02;;;;;;;10.83;8.40;;;10.80;99.90;;;-141.84;69.73;19486.66;4991406;28;20578;-49
2023/02/21 08:13:32;;;;;;;13.63;8.73;;;10.80;99.90;;;-141.84;69.92;19484.59;4991073;28;20234;-52
2023/02/21 08:16:00;;;;;;;11.83;8.77;;;10.80;99.90;;;-141.84;70.08;19482.56;4991288;28;20235;-52
2023/02/21 08:18:28;;;;;;;11.30;7.87;;;10.80;99.90;;;-141.84;69.65;19466.31;4991319;28;20315;-54
2023/02/21 08:20:57;;;;;;;11.80;8.97;;;10.80;99.90;;;-141.84;69.50;19517.13;4991246;28;20210;-51
2023/02/21 08:23:25;;;;;;;11.00;8.67;;;10.80;99.90;;;-141.84;69.01;19478.50;4991595;28;20230;-50
2023/02/21 08:25:53;;;;;;;10.43;8.53;;;10.90;99.90;;;-141.84;69.51;19490.72;4990992;28;20243;-54
2023/02/21 08:28:21;;;;;;;10.37;8.00;;;10.90;99.90;;;-141.84;69.49;19531.34;4990818;28;20237;-54
2023/02/21 08:30:52;;;;;;;10.83;8.00;;;10.90;99.90;;;-141.84;68.71;19511.03;4990945;28;20230;-54
2023/02/21 08:33:20;;;;;;;10.63;7.97;;;11.00;99.90;;;-141.84;68.57;19580.13;4990621;28;20635;-54
2023/02/21 08:35:49;;;;;;;11.33;9.03;;;11.10;99.90;;;-141.84;68.94;19539.47;4990476;28;20211;-54
2023/02/21 08:38:19;;;;;;;11.30;8.10;;;11.10;99.90;;;-141.84;68.43;19574.03;4991127;28;20206;-52
2023/02/21 08:40:47;;;;;;;11.23;8.60;;;11.10;99.90;;;-141.84;68.82;19535.41;4990695;28;20620;-50
2023/02/21 08:43:15;;;;;;;10.77;8.57;;;11.10;99.90;;;-141.84;68.23;19578.09;4990403;28;20223;-53
2023/02/21 08:45:43;;;;;;;11.23;8.40;;;11.30;99.90;;;-141.84;67.58;19622.81;4990500;28;20219;-53
2023/02/21 08:48:13;;;;;;;12.67;8.30;;;11.40;99.90;;;-141.84;67.59;19582.16;4989793;28;20234;-53
2023/02/21 08:50:41;;;;;;;12.23;8.80;;;11.50;99.90;;;-141.84;68.05;19578.09;4990485;28;20562;-53
2023/02/21 08:53:12;;;;;;;12.80;9.30;;;11.40;99.90;;;-141.84;67.55;19616.72;4990478;28;20235;-55
2023/02/21 08:55:42;;;;;;;11.50;8.57;;;11.50;99.90;;;-141.84;67.41;19606.53;4990239;28;20718;-55
2023/02/21 08:58:12;;;;;;;11.83;8.53;;;11.50;99.90;;;-141.84;66.78;19620.78;4989927;28;20231;-52
2023/02/21 09:00:41;;;;;;;11.63;8.13;;;11.60;99.90;;;-141.84;67.38;19614.66;4990635;28;20258;-53
2023/02/21 09:03:09;;;;;;;12.07;8.77;;;11.60;99.90;;;-141.84;67.99;19553.72;4989865;28;20733;-52
2023/02/21 09:05:39;;;;;;;11.77;9.10;;;11.40;99.90;;;-141.84;68.72;19567.94;4990838;28;20203;-54
2023/02/21 09:08:09;;;;;;;10.27;8.27;;;11.40;99.90;;;-141.84;68.71;19557.78;4990070;28;20233;-53
2023/02/21 09:10:39;;;;;;;12.57;8.33;;;11.30;99.90;;;-141.84;68.31;19553.72;4990053;28;20266;-51
2023/02/21 09:13:07;;;;;;;13.30;9.00;;;11.30;99.90;;;-141.84;68.15;19563.88;4990007;28;20231;-54
2023/02/21 09:15:35;;;;;;;13.40;8.50;;;11.40;99.90;;;-141.84;67.98;19590.28;4989922;28;20718;-51
2023/02/21 09:18:05;;;;;;;11.10;8.70;;;11.40;99.90;;;-141.84;67.57;19602.47;4986336;28;20207;-55
2023/02/21 09:20:33;;;;;;;13.05;9.25;;;11.50;99.90;;;-141.84;67.17;19598.41;4994851;28;20714;-51
2023/02/21 09:23:03;;;;;;;11.93;8.67;;;11.50;99.90;;;-141.84;66.70;19618.75;4972099;28;20243;-53
2023/02/21 09:25:31;;;;;;;13.07;9.23;;;11.60;99.90;;;-141.84;66.15;19632.97;4970286;28;20231;-53
2023/02/21 09:28:00;;;;;;;13.30;9.93;;;11.70;99.90;;;-141.84;66.28;19620.78;4970370;28;20243;-53
2023/02/21 09:30:29;;;;;;;12.93;9.60;;;11.70;99.90;;;-141.84;65.08;19669.53;4970384;28;20230;-53
2023/02/21 09:32:58;;;;;;;12.40;9.55;;;11.90;99.90;;;-141.84;65.49;19657.34;4970108;28;20712;-54
2023/02/21 09:35:29;;;;;;;11.87;9.20;;;11.80;99.90;;;-141.84;65.76;19675.63;4970974;28;20327;-54
2023/02/21 09:37:58;;;;;;;13.18;9.07;;;11.90;99.90;;;-141.84;65.53;19655.31;4970379;28;20235;-53
2023/02/21 09:40:39;;;;;;;12.40;9.20;;;11.90;99.90;;;-141.84;64.92;19665.47;4970483;28;20228;-55
2023/02/21 09:43:15;;;;;;;14.33;9.97;;;12.00;99.90;;;-141.84;65.46;19671.56;4970312;28;20236;-56
2023/02/21 09:45:44;;;;;;;12.50;9.60;;;12.00;99.90;;;-141.84;65.40;19702.06;4970230;28;20223;-53
2023/02/21 09:48:17;;;;;;;12.03;9.77;;;11.90;99.90;;;-141.84;65.52;19679.72;4982011;28;20361;-55
2023/02/21 09:50:49;;;;;;;13.40;9.60;;;12.00;99.90;;;-141.84;65.39;19667.50;4989810;28;20190;-51
2023/02/21 09:53:24;;;;;;;13.70;9.15;;;12.00;99.90;;;-141.84;65.28;19677.66;4989677;28;20211;-55
2023/02/21 09:55:59;;;;;;;10.83;8.87;;;12.00;99.90;;;-141.84;65.30;19693.94;5006386;28;20244;-56
2023/02/21 09:58:29;;;;;;;12.98;8.68;;;12.00;99.90;;;-141.84;65.32;19677.66;4995744;28;20610;-51
2023/02/21 10:01:04;;;;;;;11.73;8.27;;;11.90;99.90;;;-141.84;65.17;19657.34;4989238;28;20233;-54
2023/02/21 10:03:54;;;;;;;12.17;9.07;;;12.00;99.90;;;-141.84;65.28;19702.06;4989273;28;20227;-54
2023/02/21 10:06:39;;;;;;;10.27;7.90;;;12.00;99.90;;;-141.84;65.04;19734.56;4989258;28;20227;-56
2023/02/21 10:09:25;;;;;;;10.97;8.17;;;12.10;99.90;;;-141.84;65.58;19655.31;4989460;28;20192;-54
2023/02/21 10:12:10;;;;;;;11.60;8.03;;;12.00;99.90;;;-141.84;66.33;19655.31;4989579;28;20191;-55
2023/02/21 10:14:58;;;;;;;9.93;7.80;;;11.90;99.90;;;-141.84;66.44;19651.25;4989756;28;20187;-54
2023/02/21 10:17:36;;;;;;;11.70;7.83;;;11.80;99.90;;;-141.84;65.67;19661.41;5009000;28;20250;-49
2023/02/21 10:20:13;;;;;;;10.38;7.53;;;11.90;99.90;;;-141.84;65.21;19645.16;4990268;28;20234;-54
2023/02/21 10:22:46;;;;;;;9.60;7.37;;;12.00;99.90;;;-141.84;65.79;19681.75;4989383;28;20233;-53
2023/02/21 10:25:24;;;;;;;9.30;7.87;;;11.90;99.90;;;-141.84;65.92;19643.13;4989129;28;20806;-54
2023/02/21 10:27:55;;;;;;;10.07;7.47;;;11.90;99.90;;;-141.84;66.39;19683.78;4989261;28;20223;-54
2023/02/21 10:30:34;;;;;;;9.75;7.53;;;11.80;99.90;;;-141.84;66.89;19645.16;4988924;28;20238;-55
2023/02/21 10:33:05;;;;;;;10.77;8.17;;;11.80;99.90;;;-141.84;66.34;19626.88;4989237;28;20627;-53
2023/02/21 10:35:34;;;;;;;10.53;7.73;;;11.80;99.90;;;-141.84;66.19;19661.41;4989627;28;20196;-52
2023/02/21 10:38:07;;;;;;;8.98;7.53;;;11.90;99.90;;;-141.84;66.78;19645.16;4989058;28;20223;-49
2023/02/21 10:40:41;;;;;;;9.32;7.35;;;11.90;99.90;;;-141.84;66.24;19679.72;4988870;28;20231;-53
2023/02/21 10:43:17;;;;;;;11.03;7.80;;;11.90;99.90;;;-141.84;66.04;19667.50;4988915;28;20219;-55
2023/02/21 10:45:55;;;;;;;10.20;7.95;;;12.00;99.90;;;-141.84;66.11;19659.38;4989040;28;20227;-54
2023/02/21 10:48:32;;;;;;;8.93;7.15;;;12.00;99.90;;;-141.84;64.93;19712.22;4988567;28;20261;-53
2023/02/21 10:51:10;;;;;;;8.98;6.05;;;12.10;99.90;;;-141.84;63.99;19704.09;4989210;28;20207;-54
2023/02/21 10:53:41;;;;;;;25.38;6.78;;;12.10;99.90;;;-141.84;64.97;19704.09;4989376;28;20216;-54
2023/02/21 10:56:23;;;;;;;9.25;6.80;;;12.20;99.90;;;-141.84;65.03;19712.22;4988760;28;20629;-52
2023/02/21 10:58:57;;;;;;;7.82;5.70;;;12.20;99.90;;;-141.84;64.71;19734.56;4988871;28;20235;-52
2023/02/21 11:01:44;;;;;;;8.93;6.45;;;12.20;99.90;;;-141.84;64.76;19683.78;4988745;28;20226;-52
2023/02/21 11:04:28;;;;;;;8.35;6.07;;;12.20;99.90;;;-141.84;64.83;19683.78;4988652;28;20227;-51
2023/02/21 11:07:03;;;;;;;7.15;5.50;;;12.20;99.90;;;-141.84;64.70;19685.81;4988711;28;20223;-54
2023/02/21 11:09:39;;;;;;;9.20;6.57;;;12.10;99.90;;;-141.84;64.43;19720.34;4988854;28;20233;-56
2023/02/21 11:12:20;;;;;;;8.27;5.93;;;12.20;99.90;;;-141.84;64.06;19710.19;4988951;28;20655;-54
2023/02/21 11:17:44;;;;;;;7.68;5.95;;;12.20;99.90;;;-141.84;65.02;19724.41;5086330;27;20581;-55
2023/02/21 11:20:22;;;;;;;8.70;6.53;;;12.20;99.90;;;-141.84;63.97;19734.56;5046111;28;20229;-57
2023/02/21 11:22:51;;;;;;;8.48;5.80;;;12.30;99.90;;;-141.84;64.10;19726.44;5045980;28;20312;-56
2023/02/21 11:25:25;;;;;;;8.35;6.05;;;12.20;99.90;;;-141.84;64.26;19740.69;5045905;28;20225;-54
2023/02/21 11:28:04;;;;;;;8.15;5.15;;;12.20;99.90;;;-141.84;63.92;19732.53;5045907;28;20617;-55
2023/02/21 11:30:37;;;;;;;7.23;5.47;;;12.20;99.90;;;-141.84;64.76;19706.13;5045876;28;20721;-55
2023/02/21 11:33:09;;;;;;;8.98;5.93;;;12.20;99.90;;;-141.84;65.79;19647.19;5045701;28;20197;-55
2023/02/21 11:35:47;;;;;;;7.90;6.32;;;12.00;99.90;;;-141.84;65.83;19659.38;5046089;28;20186;-54
2023/02/21 11:38:36;;;;;;;7.20;5.20;;;11.90;99.90;;;-141.84;66.15;19661.41;5046035;28;20209;-51
2023/02/21 11:41:18;;;;;;;8.30;5.77;;;11.80;99.90;;;-141.84;65.83;19663.44;5045528;28;20578;-56
2023/02/21 11:43:48;;;;;;;7.60;5.33;;;11.80;99.90;;;-141.84;66.32;19606.53;5046017;28;20229;-54
2023/02/21 11:46:35;;;;;;;8.40;6.20;;;11.80;99.90;;;-141.84;66.17;19665.47;5045897;28;20225;-52
2023/02/21 11:49:19;;;;;;;7.82;5.75;;;11.70;99.90;;;-141.84;65.74;19683.78;5045382;28;20240;-51
2023/02/21 11:51:50;;;;;;;7.40;5.43;;;11.90;99.90;;;-141.84;65.37;19700.03;5045640;28;20229;-55
2023/02/21 11:54:29;;;;;;;7.63;5.25;;;12.00;99.90;;;-141.84;65.02;19683.78;5045743;28;20232;-53
2023/02/21 11:57:06;;;;;;;8.02;5.22;;;12.10;99.90;;;-141.84;65.37;19718.31;5045574;28;20205;-56
2023/02/21 11:59:47;;;;;;;8.55;5.53;;;12.20;99.90;;;-141.84;64.20;19722.38;5045799;28;20280;-56
2023/02/21 12:02:47;;;;;;;6.75;5.43;;;12.30;99.90;;;-141.84;63.64;19761.00;5045207;28;20213;-54
2023/02/21 12:05:41;;;;;;;8.13;5.75;;;12.50;99.90;;;-141.84;63.78;19769.13;5045696;28;20297;-55
2023/02/21 12:08:37;;;;;;;7.93;5.13;;;12.60;99.90;;;-141.84;64.32;19726.44;5045212;28;20260;-54
2023/02/21 12:11:24;;;;;;;7.93;4.97;;;12.50;99.90;;;-141.84;64.57;19750.84;5044873;28;20233;-54
2023/02/21 12:14:14;;;;;;;7.90;5.57;;;12.50;99.90;;;-141.84;63.52;19809.78;5045239;28;20241;-55
2023/02/21 12:16:59;;;;;;;7.10;5.15;;;12.60;99.90;;;-141.84;62.51;19821.97;5044563;28;20295;-52
2023/02/21 12:19:50;;;;;;;9.15;5.70;;;12.90;99.90;;;-141.84;62.37;19850.41;5045228;28;20221;-54
2023/02/21 12:22:38;;;;;;;7.13;5.30;;;12.90;99.90;;;-141.84;61.61;19864.66;5045238;28;20233;-55
2023/02/21 12:25:23;;;;;;;7.22;5.32;;;13.10;99.90;;;-141.84;61.69;19882.94;5045171;28;20251;-52
2023/02/21 12:28:03;;;;;;;7.68;5.47;;;13.20;99.90;;;-141.84;60.95;19860.59;5038290;28;20229;-51
2023/02/21 12:31:08;;;;;;;5.63;4.68;;;13.30;99.90;;;-141.84;60.92;19846.34;5031966;28;20611;-52
2023/02/21 12:33:48;;;;;;;7.25;5.07;;;13.30;99.90;;;-141.84;61.05;19868.72;5031041;28;20633;-54
2023/02/21 12:36:36;;;;;;;7.85;5.03;;;13.30;99.90;;;-141.84;61.71;19848.38;5031597;28;20248;-53
2023/02/21 12:39:24;;;;;;;5.97;4.90;;;13.20;99.90;;;-141.84;62.05;19842.28;5031504;28;20199;-57
2023/02/21 12:42:24;;;;;;;7.50;5.03;;;13.10;99.90;;;-141.84;62.35;19805.72;5031627;28;20315;-56
2023/02/21 12:45:07;;;;;;;5.38;4.38;;;12.90;99.90;;;-141.84;62.88;19765.06;5031570;28;20201;-52
2023/02/21 12:47:47;;;;;;;7.07;4.70;;;12.70;99.90;;;-141.84;62.64;19797.59;5031402;28;20198;-53
2023/02/21 12:50:22;;;;;;;6.78;4.93;;;12.60;99.90;;;-141.84;63.45;19728.47;5031510;28;20213;-53